createdAt,value
2018-03-28T00:00:13.988Z,8.62
2018-03-28T00:01:13.850Z,8.55
2018-03-28T00:02:13.842Z,8.67
2018-03-28T00:03:13.828Z,8.52
2018-03-28T00:04:13.688Z,8.53
2018-03-28T00:05:13.658Z,8.56
2018-03-28T00:06:13.627Z,8.46
2018-03-28T00:07:13.599Z,8.56
2018-03-28T00:08:13.603Z,8.46
2018-03-28T00:09:13.554Z,8.53
2018-03-28T00:10:13.507Z,8.52
2018-03-28T00:11:13.531Z,8.52
2018-03-28T00:12:13.459Z,8.57
2018-03-28T00:13:13.420Z,8.62
2018-03-28T00:14:13.405Z,8.57
2018-03-28T00:15:13.440Z,8.65
2018-03-28T00:16:13.331Z,8.56
2018-03-28T00:17:13.299Z,8.55
2018-03-28T00:18:13.273Z,8.56
2018-03-28T00:19:13.235Z,8.59
2018-03-28T00:20:13.214Z,8.57
2018-03-28T00:21:13.266Z,8.62
2018-03-28T00:22:13.753Z,8.55
2018-03-28T00:23:13.110Z,8.63
2018-03-28T00:24:13.115Z,8.65
2018-03-28T00:25:13.052Z,8.62
2018-03-28T00:26:13.114Z,8.67
2018-03-28T00:27:13.025Z,8.62
2018-03-28T00:28:12.980Z,8.59
2018-03-28T00:29:12.936Z,8.55
2018-03-28T00:30:12.929Z,8.62
2018-03-28T00:31:12.883Z,8.67
2018-03-28T00:32:12.845Z,8.62
2018-03-28T00:33:12.955Z,8.63
2018-03-28T00:34:12.797Z,8.59
2018-03-28T00:35:12.766Z,8.56
2018-03-28T00:36:12.749Z,8.59
2018-03-28T00:37:12.694Z,8.71
2018-03-28T00:38:12.670Z,8.71
2018-03-28T00:39:12.649Z,8.68
2018-03-28T00:40:12.633Z,8.74
2018-03-28T00:41:12.575Z,8.77
2018-03-28T00:42:12.613Z,8.75
2018-03-28T00:43:12.587Z,8.74
2018-03-28T00:44:12.492Z,8.74
2018-03-28T00:45:12.468Z,8.65
2018-03-28T00:46:12.449Z,8.80
2018-03-28T00:47:12.407Z,8.74
2018-03-28T00:48:12.406Z,8.81
2018-03-28T00:49:12.365Z,8.83
2018-03-28T00:50:12.306Z,8.89
2018-03-28T00:51:12.279Z,8.77
2018-03-28T00:52:12.248Z,8.81
2018-03-28T00:53:12.216Z,8.92
2018-03-28T00:54:12.190Z,8.92
2018-03-28T00:55:12.168Z,8.85
2018-03-28T00:56:12.172Z,8.89
2018-03-28T00:57:12.109Z,8.75
2018-03-28T00:58:12.066Z,8.77
2018-03-28T00:59:12.043Z,8.83
2018-03-28T01:00:12.035Z,8.83
2018-03-28T01:01:12.113Z,8.77
2018-03-28T01:02:11.950Z,8.86
2018-03-28T01:03:12.007Z,8.90
2018-03-28T01:04:11.894Z,8.93
2018-03-28T01:05:11.861Z,8.96
2018-03-28T01:06:11.852Z,8.90
2018-03-28T01:07:11.886Z,8.89
2018-03-28T01:08:11.771Z,8.81
2018-03-28T01:09:11.916Z,8.88
2018-03-28T01:10:11.805Z,8.89
2018-03-28T01:11:11.706Z,8.95
2018-03-28T01:12:11.665Z,8.92
2018-03-28T01:13:11.628Z,8.92
2018-03-28T01:14:11.603Z,8.96
2018-03-28T01:15:11.576Z,8.99
2018-03-28T01:16:11.532Z,8.95
2018-03-28T01:17:11.675Z,8.96
2018-03-28T01:18:11.624Z,8.86
2018-03-28T01:19:11.448Z,8.89
2018-03-28T01:20:11.411Z,8.86
2018-03-28T01:21:11.492Z,8.81
2018-03-28T01:22:11.423Z,8.86
2018-03-28T01:23:11.428Z,8.83
2018-03-28T01:24:11.388Z,8.77
2018-03-28T01:25:11.564Z,8.77
2018-03-28T01:28:30.066Z,8.95
2018-03-28T01:29:29.986Z,8.81
2018-03-28T01:31:36.279Z,8.89
2018-03-28T01:32:35.731Z,8.89
2018-03-28T01:34:41.377Z,8.83
2018-03-28T01:35:40.438Z,8.86
2018-03-28T01:38:00.141Z,8.98
2018-03-28T01:39:00.010Z,8.90
2018-03-28T01:41:18.314Z,8.90
2018-03-28T01:42:19.832Z,8.90
2018-03-28T01:44:46.852Z,8.99
2018-03-28T01:45:45.560Z,8.99
2018-03-28T01:47:50.218Z,8.98
2018-03-28T01:48:50.136Z,8.92
2018-03-28T01:49:51.041Z,8.88
2018-03-28T01:50:50.545Z,8.89
2018-03-28T01:51:51.230Z,8.83
2018-03-28T01:52:50.992Z,8.86
2018-03-28T01:53:50.446Z,8.80
2018-03-28T01:54:51.517Z,8.75
2018-03-28T01:55:51.015Z,8.78
2018-03-28T01:56:49.862Z,8.78
2018-03-28T01:57:49.297Z,8.78
2018-03-28T01:58:50.306Z,8.81
2018-03-28T01:59:50.827Z,8.80
2018-03-28T02:00:51.183Z,8.74
2018-03-28T02:01:50.068Z,8.80
2018-03-28T02:02:49.683Z,8.88
2018-03-28T02:03:50.433Z,8.96
2018-03-28T02:04:51.929Z,8.92
2018-03-28T02:05:50.526Z,8.99
2018-03-28T02:06:49.574Z,8.95
2018-03-28T02:07:49.902Z,8.95
2018-03-28T02:08:49.413Z,8.96
2018-03-28T02:09:49.539Z,8.99
2018-03-28T02:10:50.507Z,8.98
2018-03-28T02:11:49.535Z,9.01
2018-03-28T02:12:54.553Z,9.09
2018-03-28T02:13:54.708Z,8.96
2018-03-28T02:14:56.093Z,8.98
2018-03-28T02:15:54.705Z,8.99
2018-03-28T02:18:33.710Z,9.04
2018-03-28T02:19:33.346Z,8.96
2018-03-28T02:21:40.075Z,9.06
2018-03-28T02:22:40.316Z,9.01
2018-03-28T02:24:55.004Z,9.09
2018-03-28T02:25:55.483Z,8.95
2018-03-28T02:27:55.718Z,9.04
2018-03-28T02:28:56.516Z,9.08
2018-03-28T02:29:58.218Z,9.08
2018-03-28T02:30:55.384Z,9.06
2018-03-28T02:31:56.479Z,9.01
2018-03-28T02:32:55.331Z,8.88
2018-03-28T02:33:57.124Z,8.98
2018-03-28T02:34:56.550Z,9.04
2018-03-28T02:35:56.349Z,9.04
2018-03-28T02:36:56.236Z,9.01
2018-03-28T02:37:56.214Z,8.95
2018-03-28T02:38:55.569Z,9.03
2018-03-28T02:39:54.588Z,9.03
2018-03-28T02:40:55.367Z,8.93
2018-03-28T02:41:55.858Z,8.99
2018-03-28T02:42:54.492Z,9.01
2018-03-28T02:43:55.355Z,8.98
2018-03-28T02:44:55.738Z,8.88
2018-03-28T02:45:54.788Z,8.93
2018-03-28T02:46:55.774Z,8.89
2018-03-28T02:47:56.181Z,8.81
2018-03-28T02:48:56.253Z,8.88
2018-03-28T02:49:55.766Z,8.88
2018-03-28T02:50:55.866Z,8.88
2018-03-28T02:51:54.625Z,8.89
2018-03-28T02:52:55.759Z,8.98
2018-03-28T02:53:55.374Z,8.83
2018-03-28T02:54:54.710Z,8.90
2018-03-28T02:55:54.836Z,8.89
2018-03-28T02:56:54.147Z,8.92
2018-03-28T02:57:57.163Z,8.88
2018-03-28T02:58:53.691Z,9.06
2018-03-28T02:59:53.519Z,9.08
2018-03-28T03:00:53.483Z,9.08
2018-03-28T03:01:53.456Z,9.01
2018-03-28T03:02:53.442Z,8.98
2018-03-28T03:03:53.383Z,9.08
2018-03-28T03:04:53.353Z,9.01
2018-03-28T03:05:53.322Z,8.96
2018-03-28T03:06:53.303Z,8.95
2018-03-28T03:07:53.268Z,8.99
2018-03-28T03:08:53.235Z,8.99
2018-03-28T03:09:53.204Z,9.01
2018-03-28T03:10:53.180Z,9.01
2018-03-28T03:11:53.156Z,9.08
2018-03-28T03:12:53.122Z,9.06
2018-03-28T03:13:53.088Z,9.16
2018-03-28T03:14:53.059Z,9.15
2018-03-28T03:15:53.040Z,9.23
2018-03-28T03:16:53.000Z,9.19
2018-03-28T03:17:52.969Z,9.18
2018-03-28T03:18:52.941Z,9.16
2018-03-28T03:19:52.916Z,9.15
2018-03-28T03:20:52.877Z,9.18
2018-03-28T03:21:52.851Z,9.14
2018-03-28T03:22:52.817Z,9.24
2018-03-28T03:23:52.786Z,9.24
2018-03-28T03:24:52.760Z,9.11
2018-03-28T03:25:52.728Z,9.15
2018-03-28T03:26:52.701Z,9.14
2018-03-28T03:27:52.675Z,9.06
2018-03-28T03:28:52.653Z,9.08
2018-03-28T03:29:52.612Z,9.08
2018-03-28T03:30:52.588Z,8.99
2018-03-28T03:31:52.553Z,8.95
2018-03-28T03:32:52.522Z,9.01
2018-03-28T03:33:52.514Z,8.92
2018-03-28T03:34:52.466Z,9.01
2018-03-28T03:35:52.430Z,8.96
2018-03-28T03:36:52.464Z,8.93
2018-03-28T03:37:52.369Z,8.96
2018-03-28T03:38:52.343Z,9.03
2018-03-28T03:39:52.320Z,9.06
2018-03-28T03:40:52.290Z,9.04
2018-03-28T03:41:52.251Z,9.09
2018-03-28T03:42:52.230Z,9.09
2018-03-28T03:43:52.202Z,9.01
2018-03-28T03:44:52.166Z,8.99
2018-03-28T03:45:52.133Z,8.96
2018-03-28T03:46:52.127Z,8.95
2018-03-28T03:47:52.073Z,8.85
2018-03-28T03:48:52.044Z,8.89
2018-03-28T03:49:52.018Z,8.92
2018-03-28T03:50:51.994Z,9.01
2018-03-28T03:51:51.954Z,8.90
2018-03-28T03:52:51.925Z,8.95
2018-03-28T03:53:51.894Z,8.96
2018-03-28T03:54:51.865Z,9.03
2018-03-28T03:55:51.944Z,9.06
2018-03-28T03:56:51.810Z,9.11
2018-03-28T03:57:51.785Z,9.09
2018-03-28T03:58:51.825Z,9.11
2018-03-28T03:59:51.719Z,9.06
2018-03-28T04:00:51.682Z,9.06
2018-03-28T04:01:51.755Z,9.04
2018-03-28T04:02:51.625Z,9.11
2018-03-28T04:03:51.593Z,9.22
2018-03-28T04:04:51.562Z,9.16
2018-03-28T04:05:51.533Z,9.16
2018-03-28T04:06:51.519Z,9.16
2018-03-28T04:07:51.481Z,9.11
2018-03-28T04:08:51.453Z,9.15
2018-03-28T04:09:51.418Z,9.19
2018-03-28T04:10:51.388Z,9.01
2018-03-28T04:11:51.394Z,9.08
2018-03-28T04:12:51.353Z,9.04
2018-03-28T04:13:51.299Z,9.06
2018-03-28T04:14:51.308Z,8.98
2018-03-28T04:15:51.233Z,9.04
2018-03-28T04:16:51.208Z,9.06
2018-03-28T04:17:51.203Z,9.09
2018-03-28T04:18:51.144Z,9.03
2018-03-28T04:19:51.116Z,8.99
2018-03-28T04:20:51.088Z,8.96
2018-03-28T04:21:51.051Z,8.95
2018-03-28T04:22:51.026Z,8.93
2018-03-28T04:23:51.007Z,8.95
2018-03-28T04:24:50.970Z,8.98
2018-03-28T04:25:50.943Z,9.01
2018-03-28T04:26:50.907Z,9.01
2018-03-28T04:27:50.878Z,9.04
2018-03-28T04:28:50.874Z,9.01
2018-03-28T04:29:50.817Z,9.08
2018-03-28T04:30:50.868Z,8.99
2018-03-28T04:31:50.858Z,8.99
2018-03-28T04:32:50.730Z,9.06
2018-03-28T04:33:50.698Z,9.01
2018-03-28T04:34:50.669Z,9.09
2018-03-28T04:35:50.640Z,9.06
2018-03-28T04:36:50.604Z,9.04
2018-03-28T04:37:50.575Z,9.03
2018-03-28T04:38:50.550Z,9.04
2018-03-28T04:39:50.520Z,8.99
2018-03-28T04:40:50.489Z,9.06
2018-03-28T04:41:50.458Z,8.98
2018-03-28T04:42:50.448Z,9.04
2018-03-28T04:43:50.414Z,8.96
2018-03-28T04:44:50.373Z,8.90
2018-03-28T04:45:50.342Z,8.85
2018-03-28T04:46:50.316Z,8.88
2018-03-28T04:47:50.278Z,8.88
2018-03-28T04:48:50.289Z,8.92
2018-03-28T04:49:50.214Z,8.77
2018-03-28T04:50:50.190Z,8.85
2018-03-28T04:51:50.158Z,8.90
2018-03-28T04:52:50.136Z,8.88
2018-03-28T04:53:50.092Z,8.85
2018-03-28T04:54:50.065Z,8.90
2018-03-28T04:55:50.046Z,8.90
2018-03-28T04:56:50.016Z,8.80
2018-03-28T04:57:49.982Z,8.83
2018-03-28T04:58:49.953Z,8.83
2018-03-28T04:59:49.944Z,8.86
2018-03-28T05:00:49.890Z,8.88
2018-03-28T05:01:49.856Z,8.88
2018-03-28T05:02:49.827Z,8.77
2018-03-28T05:03:49.805Z,8.67
2018-03-28T05:04:49.773Z,8.68
2018-03-28T05:05:49.849Z,8.70
2018-03-28T05:06:49.707Z,8.71
2018-03-28T05:07:49.681Z,8.59
2018-03-28T05:08:49.658Z,8.57
2018-03-28T05:09:49.619Z,8.62
2018-03-28T05:10:49.600Z,8.60
2018-03-28T05:11:49.580Z,8.67
2018-03-28T05:12:49.531Z,8.68
2018-03-28T05:13:49.571Z,8.68
2018-03-28T05:14:49.524Z,8.62
2018-03-28T05:15:49.476Z,8.68
2018-03-28T05:16:49.404Z,8.74
2018-03-28T05:17:49.381Z,8.63
2018-03-28T05:18:49.354Z,8.57
2018-03-28T05:19:49.321Z,8.72
2018-03-28T05:20:49.288Z,8.77
2018-03-28T05:21:49.265Z,8.77
2018-03-28T05:22:49.231Z,8.72
2018-03-28T05:23:49.199Z,8.81
2018-03-28T05:24:49.168Z,8.71
2018-03-28T05:25:49.140Z,8.72
2018-03-28T05:26:49.108Z,8.72
2018-03-28T05:27:49.100Z,8.67
2018-03-28T05:28:49.041Z,8.63
2018-03-28T05:29:49.020Z,8.74
2018-03-28T05:30:48.988Z,8.71
2018-03-28T05:31:48.958Z,8.74
2018-03-28T05:32:48.927Z,8.68
2018-03-28T05:33:48.988Z,8.71
2018-03-28T05:34:48.862Z,8.72
2018-03-28T05:35:48.837Z,8.71
2018-03-28T05:36:48.805Z,8.78
2018-03-28T05:37:48.778Z,8.77
2018-03-28T05:38:48.743Z,8.70
2018-03-28T05:39:48.721Z,8.70
2018-03-28T05:40:48.689Z,8.72
2018-03-28T05:41:48.657Z,8.72
2018-03-28T05:42:48.667Z,8.70
2018-03-28T05:43:48.605Z,8.75
2018-03-28T05:44:48.596Z,8.75
2018-03-28T05:45:48.527Z,8.78
2018-03-28T05:46:48.502Z,8.72
2018-03-28T05:47:48.475Z,8.77
2018-03-28T05:48:48.437Z,8.68
2018-03-28T05:49:48.409Z,8.74
2018-03-28T05:50:48.378Z,8.65
2018-03-28T05:51:48.357Z,8.71
2018-03-28T05:52:48.325Z,8.70
2018-03-28T05:53:48.297Z,8.72
2018-03-28T05:54:48.281Z,8.74
2018-03-28T05:55:48.350Z,8.70
2018-03-28T05:56:48.208Z,8.68
2018-03-28T05:57:48.172Z,8.72
2018-03-28T05:58:48.146Z,8.75
2018-03-28T05:59:48.113Z,8.75
2018-03-28T06:00:48.083Z,8.80
2018-03-28T06:01:48.057Z,8.72
2018-03-28T06:02:48.015Z,8.72
2018-03-28T06:03:47.996Z,8.78
2018-03-28T06:04:47.961Z,8.70
2018-03-28T06:05:47.930Z,8.71
2018-03-28T06:06:47.904Z,8.60
2018-03-28T06:07:47.867Z,8.70
2018-03-28T06:08:47.836Z,8.72
2018-03-28T06:09:47.810Z,8.72
2018-03-28T06:10:47.779Z,8.75
2018-03-28T06:11:47.762Z,8.80
2018-03-28T06:12:47.715Z,8.72
2018-03-28T06:13:47.687Z,8.74
2018-03-28T06:14:47.670Z,8.86
2018-03-28T06:15:47.631Z,8.78
2018-03-28T06:16:47.616Z,8.83
2018-03-28T06:17:47.571Z,8.89
2018-03-28T06:18:47.542Z,8.85
2018-03-28T06:19:47.513Z,8.75
2018-03-28T06:20:47.486Z,8.89
2018-03-28T06:21:47.458Z,8.86
2018-03-28T06:22:47.526Z,8.81
2018-03-28T06:23:47.455Z,8.75
2018-03-28T06:24:47.366Z,8.80
2018-03-28T06:25:47.331Z,8.85
2018-03-28T06:26:47.295Z,8.83
2018-03-28T06:27:47.272Z,8.86
2018-03-28T06:28:47.259Z,8.75
2018-03-28T06:29:47.204Z,8.81
2018-03-28T06:30:47.177Z,8.81
2018-03-28T06:31:47.208Z,8.75
2018-03-28T06:32:47.140Z,8.78
2018-03-28T06:33:47.096Z,8.81
2018-03-28T06:34:47.188Z,8.77
2018-03-28T06:35:47.035Z,8.77
2018-03-28T06:36:47.005Z,8.85
2018-03-28T06:37:46.990Z,8.85
2018-03-28T06:38:46.943Z,8.98
2018-03-28T06:39:46.946Z,8.81
2018-03-28T06:40:46.879Z,8.89
2018-03-28T06:41:46.854Z,8.89
2018-03-28T06:42:46.821Z,8.93
2018-03-28T06:43:46.788Z,8.85
2018-03-28T06:44:46.766Z,8.90
2018-03-28T06:45:46.733Z,8.99
2018-03-28T06:46:46.753Z,8.98
2018-03-28T06:47:46.672Z,8.86
2018-03-28T06:48:46.645Z,8.90
2018-03-28T06:49:46.618Z,8.98
2018-03-28T06:50:46.587Z,8.92
2018-03-28T06:51:46.555Z,9.03
2018-03-28T06:52:46.527Z,9.04
2018-03-28T06:53:46.495Z,9.06
2018-03-28T06:54:46.468Z,8.92
2018-03-28T06:55:46.432Z,9.08
2018-03-28T06:56:46.401Z,9.03
2018-03-28T06:57:46.368Z,9.06
2018-03-28T06:58:46.347Z,9.11
2018-03-28T06:59:46.376Z,9.14
2018-03-28T07:00:46.311Z,9.16
2018-03-28T07:01:46.250Z,9.19
2018-03-28T07:02:46.220Z,9.27
2018-03-28T07:03:46.202Z,9.14
2018-03-28T07:04:46.212Z,9.24
2018-03-28T07:05:46.137Z,9.32
2018-03-28T07:06:46.105Z,9.45
2018-03-28T07:07:46.074Z,9.45
2018-03-28T07:08:46.048Z,9.57
2018-03-28T07:09:46.020Z,9.62
2018-03-28T07:10:45.997Z,9.69
2018-03-28T07:11:45.954Z,9.67
2018-03-28T07:12:45.933Z,9.63
2018-03-28T07:13:45.903Z,9.67
2018-03-28T07:14:47.458Z,9.78
2018-03-28T07:15:45.840Z,9.59
2018-03-28T07:16:45.812Z,9.75
2018-03-28T07:17:45.783Z,9.70
2018-03-28T07:18:45.753Z,9.83
2018-03-28T07:19:45.729Z,9.72
2018-03-28T07:20:45.763Z,9.72
2018-03-28T07:21:45.667Z,9.73
2018-03-28T07:22:45.639Z,9.67
2018-03-28T07:23:45.607Z,9.81
2018-03-28T07:24:45.578Z,9.63
2018-03-28T07:25:45.624Z,9.60
2018-03-28T07:26:45.602Z,9.55
2018-03-28T07:27:45.533Z,9.67
2018-03-28T07:28:45.476Z,9.69
2018-03-28T07:29:45.598Z,9.78
2018-03-28T07:30:45.405Z,9.72
2018-03-28T07:31:45.431Z,9.67
2018-03-28T07:32:45.354Z,9.62
2018-03-28T07:33:45.314Z,9.63
2018-03-28T07:34:45.284Z,9.65
2018-03-28T07:35:45.258Z,9.65
2018-03-28T07:36:45.303Z,9.63
2018-03-28T07:37:45.219Z,9.69
2018-03-28T07:38:45.173Z,9.75
2018-03-28T07:39:45.179Z,9.83
2018-03-28T07:40:45.112Z,9.81
2018-03-28T07:41:45.096Z,9.80
2018-03-28T07:42:45.063Z,9.93
2018-03-28T07:43:45.026Z,9.83
2018-03-28T07:44:45.104Z,9.77
2018-03-28T07:45:44.968Z,9.70
2018-03-28T07:46:44.936Z,9.77
2018-03-28T07:47:44.920Z,9.78
2018-03-28T07:48:44.878Z,9.84
2018-03-28T07:49:44.847Z,9.77
2018-03-28T07:50:44.818Z,9.80
2018-03-28T07:51:44.798Z,9.91
2018-03-28T07:52:44.775Z,10.01
2018-03-28T07:53:44.747Z,9.96
2018-03-28T07:54:44.709Z,9.88
2018-03-28T07:55:44.680Z,9.87
2018-03-28T07:56:44.739Z,10.01
2018-03-28T07:57:44.622Z,9.99
2018-03-28T07:58:44.763Z,9.96
2018-03-28T07:59:44.559Z,9.96
2018-03-28T08:00:44.537Z,9.96
2018-03-28T08:01:44.506Z,9.99
2018-03-28T08:02:44.470Z,9.83
2018-03-28T08:03:44.443Z,9.84
2018-03-28T08:04:44.411Z,9.78
2018-03-28T08:05:44.382Z,9.88
2018-03-28T08:06:44.353Z,9.90
2018-03-28T08:07:44.326Z,9.88
2018-03-28T08:08:44.326Z,9.88
2018-03-28T08:09:44.343Z,9.90
2018-03-28T08:10:44.248Z,10.03
2018-03-28T08:11:44.209Z,9.94
2018-03-28T08:12:44.181Z,9.93
2018-03-28T08:13:44.159Z,10.06
2018-03-28T08:14:44.126Z,9.99
2018-03-28T08:15:44.095Z,10.05
2018-03-28T08:16:44.070Z,10.10
2018-03-28T08:17:44.043Z,10.26
2018-03-28T08:18:44.011Z,10.34
2018-03-28T08:19:43.982Z,10.42
2018-03-28T08:20:43.979Z,10.49
2018-03-28T08:21:43.927Z,10.54
2018-03-28T08:22:43.899Z,10.58
2018-03-28T08:23:43.861Z,10.72
2018-03-28T08:24:43.832Z,10.85
2018-03-28T08:25:43.822Z,10.62
2018-03-28T08:26:43.782Z,10.79
2018-03-28T08:27:43.745Z,10.83
2018-03-28T08:28:43.734Z,10.83
2018-03-28T08:29:43.687Z,10.75
2018-03-28T08:30:43.661Z,10.70
2018-03-28T08:31:43.638Z,10.70
2018-03-28T08:32:43.606Z,10.73
2018-03-28T08:33:43.583Z,10.83
2018-03-28T08:34:43.548Z,10.90
2018-03-28T08:35:43.526Z,10.94
2018-03-28T08:36:43.492Z,11.05
2018-03-28T08:37:43.469Z,10.94
2018-03-28T08:38:43.438Z,10.87
2018-03-28T08:39:43.408Z,10.90
2018-03-28T08:40:43.382Z,10.93
2018-03-28T08:41:43.355Z,10.97
2018-03-28T08:42:43.322Z,11.03
2018-03-28T08:43:43.303Z,11.12
2018-03-28T08:44:43.262Z,11.19
2018-03-28T08:45:43.237Z,11.05
2018-03-28T08:46:43.230Z,11.04
2018-03-28T08:47:43.190Z,11.11
2018-03-28T08:48:43.158Z,10.93
2018-03-28T08:49:43.131Z,10.91
2018-03-28T08:50:43.111Z,10.94
2018-03-28T08:51:43.072Z,10.87
2018-03-28T08:52:43.044Z,10.76
2018-03-28T08:53:43.021Z,10.82
2018-03-28T08:54:42.991Z,10.83
2018-03-28T08:55:42.954Z,10.87
2018-03-28T08:56:42.934Z,10.80
2018-03-28T08:57:42.899Z,10.87
2018-03-28T08:58:42.868Z,10.82
2018-03-28T08:59:42.839Z,10.85
2018-03-28T09:00:42.816Z,10.82
2018-03-28T09:01:42.782Z,10.94
2018-03-28T09:02:42.760Z,10.98
2018-03-28T09:03:42.734Z,10.90
2018-03-28T09:04:42.704Z,11.05
2018-03-28T09:05:42.677Z,11.12
2018-03-28T09:06:42.646Z,11.13
2018-03-28T09:07:42.622Z,11.16
2018-03-28T09:08:42.591Z,11.28
2018-03-28T09:09:42.568Z,11.16
2018-03-28T09:10:42.554Z,11.15
2018-03-28T09:11:42.507Z,11.11
2018-03-28T09:12:42.480Z,10.94
2018-03-28T09:13:42.443Z,10.86
2018-03-28T09:14:42.417Z,10.78
2018-03-28T09:15:42.394Z,10.86
2018-03-28T09:16:42.370Z,10.85
2018-03-28T09:17:42.349Z,10.85
2018-03-28T09:18:42.314Z,10.87
2018-03-28T09:19:42.278Z,10.85
2018-03-28T09:20:42.248Z,10.90
2018-03-28T09:21:42.222Z,10.95
2018-03-28T09:22:42.251Z,11.08
2018-03-28T09:23:42.164Z,11.20
2018-03-28T09:24:42.146Z,11.27
2018-03-28T09:25:42.107Z,11.27
2018-03-28T09:26:42.087Z,11.43
2018-03-28T09:27:42.063Z,11.18
2018-03-28T09:28:42.038Z,11.00
2018-03-28T09:29:42.000Z,11.13
2018-03-28T09:30:41.974Z,11.04
2018-03-28T09:31:41.945Z,11.08
2018-03-28T09:32:41.931Z,11.04
2018-03-28T09:33:41.889Z,11.08
2018-03-28T09:34:41.862Z,11.03
2018-03-28T09:35:41.838Z,11.05
2018-03-28T09:36:41.806Z,11.09
2018-03-28T09:37:41.774Z,11.04
2018-03-28T09:38:41.747Z,11.09
2018-03-28T09:39:41.751Z,11.05
2018-03-28T09:40:41.692Z,11.04
2018-03-28T09:41:41.659Z,11.15
2018-03-28T09:42:41.634Z,11.01
2018-03-28T09:43:41.612Z,10.87
2018-03-28T09:44:41.582Z,10.86
2018-03-28T09:45:41.601Z,10.85
2018-03-28T09:46:41.527Z,11.03
2018-03-28T09:47:41.502Z,11.13
2018-03-28T09:48:41.469Z,11.04
2018-03-28T09:49:41.448Z,11.16
2018-03-28T09:50:41.435Z,11.27
2018-03-28T09:51:41.532Z,11.20
2018-03-28T09:52:41.709Z,11.34
2018-03-28T09:53:41.323Z,11.31
2018-03-28T09:54:41.335Z,11.37
2018-03-28T09:55:41.268Z,11.46
2018-03-28T09:56:41.243Z,11.36
2018-03-28T09:57:41.236Z,11.48
2018-03-28T09:58:41.186Z,11.51
2018-03-28T09:59:41.175Z,11.34
2018-03-28T10:01:09.060Z,11.33
2018-03-28T10:03:08.462Z,11.25
2018-03-28T10:03:44.756Z,11.22
2018-03-28T10:05:50.229Z,11.13
2018-03-28T10:06:49.677Z,11.27
2018-03-28T10:14:10.900Z,10.86
2018-03-28T10:16:28.211Z,10.86
2018-03-28T10:17:27.607Z,10.95
2018-03-28T10:20:08.626Z,10.78
2018-03-28T10:23:14.961Z,10.73
2018-03-28T10:26:04.019Z,10.82
2018-03-28T10:27:02.893Z,10.75
2018-03-28T10:28:06.183Z,10.82
2018-03-28T10:29:03.469Z,10.90
2018-03-28T10:30:04.855Z,10.91
2018-03-28T10:33:07.859Z,11.12
2018-03-28T10:34:06.139Z,11.13
2018-03-28T10:35:07.607Z,11.33
2018-03-28T10:36:08.202Z,11.34
2018-03-28T10:37:05.981Z,11.58
2018-03-28T10:38:08.373Z,11.61
2018-03-28T10:39:07.686Z,11.59
2018-03-28T10:40:10.413Z,11.46
2018-03-28T10:41:05.615Z,11.62
2018-03-28T10:42:05.470Z,11.41
2018-03-28T10:43:05.550Z,11.43
2018-03-28T10:44:06.404Z,11.37
2018-03-28T10:45:06.369Z,11.20
2018-03-28T10:46:05.360Z,11.12
2018-03-28T10:47:05.494Z,11.03
2018-03-28T10:48:05.303Z,11.08
2018-03-28T10:49:05.274Z,10.98
2018-03-28T10:50:05.248Z,10.98
2018-03-28T10:51:05.213Z,11.04
2018-03-28T10:52:05.188Z,10.95
2018-03-28T10:53:05.157Z,11.11
2018-03-28T10:54:05.800Z,10.90
2018-03-28T10:55:05.104Z,10.91
2018-03-28T10:56:05.082Z,11.08
2018-03-28T10:57:05.106Z,11.05
2018-03-28T10:58:05.155Z,11.04
2018-03-28T10:59:04.995Z,11.09
2018-03-28T11:00:04.966Z,10.87
2018-03-28T11:01:04.946Z,10.82
2018-03-28T11:02:04.909Z,10.94
2018-03-28T11:03:04.878Z,10.86
2018-03-28T11:04:04.852Z,10.80
2018-03-28T11:05:04.831Z,10.72
2018-03-28T11:06:04.879Z,10.73
2018-03-28T11:07:04.777Z,10.73
2018-03-28T11:08:04.744Z,10.73
2018-03-28T11:09:04.719Z,10.76
2018-03-28T11:10:04.689Z,10.79
2018-03-28T11:11:04.660Z,10.86
2018-03-28T11:12:04.730Z,10.87
2018-03-28T11:13:04.607Z,11.05
2018-03-28T11:14:04.573Z,11.09
2018-03-28T11:15:05.377Z,11.03
2018-03-28T11:16:04.611Z,11.05
2018-03-28T11:17:04.484Z,11.05
2018-03-28T11:18:04.461Z,10.87
2018-03-28T11:19:04.435Z,10.91
2018-03-28T11:20:04.463Z,10.90
2018-03-28T11:21:04.374Z,10.95
2018-03-28T11:22:04.351Z,10.85
2018-03-28T11:23:04.319Z,10.83
2018-03-28T11:24:04.292Z,10.86
2018-03-28T11:25:04.272Z,10.68
2018-03-28T11:26:04.243Z,10.79
2018-03-28T11:27:04.212Z,10.83
2018-03-28T11:28:04.185Z,10.93
2018-03-28T11:29:04.158Z,10.90
2018-03-28T11:30:04.125Z,10.86
2018-03-28T11:31:04.093Z,10.82
2018-03-28T11:32:04.827Z,10.90
2018-03-28T11:33:04.045Z,10.94
2018-03-28T11:34:04.121Z,10.90
2018-03-28T11:35:03.985Z,10.83
2018-03-28T11:36:08.352Z,10.80
2018-03-28T11:39:04.504Z,10.73
2018-03-28T11:40:05.127Z,10.65
2018-03-28T11:42:42.101Z,10.76
2018-03-28T11:43:40.678Z,10.82
2018-03-28T11:45:46.114Z,10.85
2018-03-28T11:49:21.080Z,10.85
2018-03-28T11:50:19.330Z,10.85
2018-03-28T11:52:39.266Z,10.78
2018-03-28T11:53:39.609Z,10.82
2018-03-28T11:55:42.995Z,10.79
2018-03-28T11:56:43.866Z,10.68
2018-03-28T11:58:46.838Z,10.87
2018-03-28T11:59:46.320Z,10.93
2018-03-28T12:02:12.029Z,10.62
2018-03-28T12:03:12.400Z,10.49
2018-03-28T12:05:18.345Z,10.65
2018-03-28T12:08:22.334Z,10.76
2018-03-28T12:09:22.035Z,10.65
2018-03-28T12:12:58.983Z,10.48
2018-03-28T12:13:56.893Z,10.42
2018-03-28T12:16:13.516Z,10.60
2018-03-28T12:17:11.346Z,10.67
2018-03-28T12:18:11.287Z,10.64
2018-03-28T12:19:11.779Z,10.78
2018-03-28T12:20:11.188Z,10.79
2018-03-28T12:21:11.737Z,10.75
2018-03-28T12:22:11.295Z,10.76
2018-03-28T12:23:11.083Z,10.72
2018-03-28T12:24:12.306Z,10.75
2018-03-28T12:25:11.958Z,10.72
2018-03-28T12:26:12.284Z,10.62
2018-03-28T12:27:10.660Z,10.78
2018-03-28T12:28:11.622Z,10.70
2018-03-28T12:29:10.204Z,10.78
2018-03-28T12:30:09.967Z,10.65
2018-03-28T12:31:09.933Z,10.72
2018-03-28T12:32:09.967Z,10.73
2018-03-28T12:33:09.871Z,10.85
2018-03-28T12:34:09.841Z,10.85
2018-03-28T12:35:09.814Z,10.85
2018-03-28T12:36:09.927Z,10.85
2018-03-28T12:37:09.752Z,10.91
2018-03-28T12:38:09.793Z,11.01
2018-03-28T12:39:09.729Z,10.97
2018-03-28T12:40:09.671Z,10.91
2018-03-28T12:41:09.650Z,10.91
2018-03-28T12:42:09.637Z,10.97
2018-03-28T12:43:09.589Z,10.87
2018-03-28T12:44:09.560Z,10.91
2018-03-28T12:45:09.530Z,10.95
2018-03-28T12:46:09.501Z,10.90
2018-03-28T12:47:09.484Z,10.85
2018-03-28T12:48:09.505Z,10.75
2018-03-28T12:49:09.428Z,10.85
2018-03-28T12:50:09.490Z,10.75
2018-03-28T12:51:09.368Z,10.76
2018-03-28T12:52:09.401Z,10.60
2018-03-28T12:53:09.307Z,10.65
2018-03-28T12:54:09.449Z,10.67
2018-03-28T12:55:09.265Z,10.62
2018-03-28T12:56:09.261Z,10.61
2018-03-28T12:57:09.200Z,10.67
2018-03-28T12:58:09.168Z,10.79
2018-03-28T12:59:09.155Z,10.93
2018-03-28T13:00:09.117Z,10.95
2018-03-28T13:01:09.090Z,10.94
2018-03-28T13:02:09.061Z,11.05
2018-03-28T13:03:09.024Z,10.93
2018-03-28T13:04:08.999Z,10.95
2018-03-28T13:05:08.971Z,10.78
2018-03-28T13:06:08.961Z,10.93
2018-03-28T13:07:08.918Z,10.93
2018-03-28T13:08:08.935Z,10.86
2018-03-28T13:09:08.859Z,10.75
2018-03-28T13:10:08.850Z,10.90
2018-03-28T13:11:08.848Z,10.76
2018-03-28T13:12:08.780Z,10.83
2018-03-28T13:13:08.744Z,10.76
2018-03-28T13:14:08.720Z,10.80
2018-03-28T13:15:08.689Z,10.72
2018-03-28T13:16:08.658Z,10.75
2018-03-28T13:17:08.771Z,10.72
2018-03-28T13:18:08.599Z,10.72
2018-03-28T13:19:08.580Z,10.72
2018-03-28T13:20:10.394Z,10.73
2018-03-28T13:21:08.514Z,10.65
2018-03-28T13:22:08.496Z,10.46
2018-03-28T13:23:08.526Z,10.36
2018-03-28T13:24:08.480Z,10.21
2018-03-28T13:25:08.415Z,10.23
2018-03-28T13:26:08.377Z,10.30
2018-03-28T13:27:08.351Z,10.28
2018-03-28T13:28:08.326Z,10.34
2018-03-28T13:29:08.295Z,10.39
2018-03-28T13:30:08.358Z,10.41
2018-03-28T13:31:08.420Z,10.46
2018-03-28T13:32:08.207Z,10.54
2018-03-28T13:33:08.178Z,10.45
2018-03-28T13:34:08.148Z,10.27
2018-03-28T13:35:08.118Z,10.27
2018-03-28T13:36:08.093Z,10.28
2018-03-28T13:37:08.063Z,10.27
2018-03-28T13:38:08.033Z,10.36
2018-03-28T13:39:08.026Z,10.34
2018-03-28T13:40:08.067Z,10.36
2018-03-28T13:41:09.123Z,10.41
2018-03-28T13:43:57.196Z,10.27
2018-03-28T13:44:54.920Z,10.14
2018-03-28T13:45:56.361Z,10.05
2018-03-28T13:46:54.793Z,10.09
2018-03-28T13:47:54.753Z,9.99
2018-03-28T13:48:54.620Z,10.01
2018-03-28T13:49:54.151Z,9.91
2018-03-28T13:50:55.665Z,9.98
2018-03-28T13:51:56.052Z,9.77
2018-03-28T13:52:53.615Z,9.84
2018-03-28T13:53:53.573Z,9.69
2018-03-28T13:54:53.544Z,9.85
2018-03-28T13:55:53.525Z,9.83
2018-03-28T13:56:53.480Z,9.84
2018-03-28T13:57:53.457Z,9.93
2018-03-28T13:58:53.421Z,9.81
2018-03-28T13:59:53.399Z,9.69
2018-03-28T14:00:53.362Z,9.85